createdAt,value
2019-02-09T00:01:45.527Z,97664.48
2019-02-09T00:04:14.835Z,97670.32
2019-02-09T00:06:44.167Z,97659.81
2019-02-09T00:09:13.491Z,97660.81
2019-02-09T00:11:42.746Z,97663.58
2019-02-09T00:14:12.001Z,97662.91
2019-02-09T00:16:41.289Z,97651.17
2019-02-09T00:19:10.540Z,97649.46
2019-02-09T00:21:39.866Z,97644.31
2019-02-09T00:24:09.119Z,97643.48
2019-02-09T00:26:38.406Z,97630.34
2019-02-09T00:29:07.676Z,97636.16
2019-02-09T00:31:36.935Z,97634.38
2019-02-09T00:34:07.446Z,97633.86
2019-02-09T00:36:36.725Z,97631.45
2019-02-09T00:39:07.937Z,97626.67
2019-02-09T00:41:37.242Z,97624.91
2019-02-09T00:44:06.514Z,97618.56
2019-02-09T00:46:35.825Z,97617.28
2019-02-09T00:49:05.122Z,97627.36
2019-02-09T00:51:34.398Z,97631.89
2019-02-09T00:54:03.673Z,97624.77
2019-02-09T00:56:32.953Z,97625.64
2019-02-09T00:59:02.228Z,97610.73
2019-02-09T01:01:31.471Z,97622.37
2019-02-09T01:04:00.743Z,97608.16
2019-02-09T01:06:30.032Z,97608.77
2019-02-09T01:08:59.519Z,97610.07
2019-02-09T01:11:28.729Z,97613.63
2019-02-09T01:13:58.036Z,97610.00
2019-02-09T01:16:27.313Z,97609.14
2019-02-09T01:18:56.647Z,97597.18
2019-02-09T01:21:25.967Z,97596.88
2019-02-09T01:23:55.251Z,97606.52
2019-02-09T01:26:24.519Z,97607.48
2019-02-09T01:28:53.786Z,97604.92
2019-02-09T01:31:23.099Z,97610.94
2019-02-09T01:33:52.348Z,97608.72
2019-02-09T01:36:21.613Z,97601.49
2019-02-09T01:38:50.940Z,97600.63
2019-02-09T01:41:20.194Z,97608.09
2019-02-09T01:43:49.467Z,97609.83
2019-02-09T01:46:18.714Z,97612.52
2019-02-09T01:48:47.994Z,97616.44
2019-02-09T01:51:17.284Z,97611.66
2019-02-09T01:53:46.554Z,97603.97
2019-02-09T01:56:15.839Z,97605.78
2019-02-09T01:58:45.095Z,97600.80
2019-02-09T02:01:14.559Z,97601.23
2019-02-09T02:03:43.831Z,97593.64
2019-02-09T02:06:13.199Z,97584.25
2019-02-09T02:08:42.445Z,97583.52
2019-02-09T02:11:11.718Z,97578.97
2019-02-09T02:13:40.991Z,97562.87
2019-02-09T02:16:10.236Z,97561.45
2019-02-09T02:18:39.506Z,97551.28
2019-02-09T02:21:08.758Z,97546.45
2019-02-09T02:23:38.059Z,97543.19
2019-02-09T02:26:07.337Z,97525.28
2019-02-09T02:28:36.578Z,97521.23
2019-02-09T02:31:05.871Z,97507.10
2019-02-09T02:33:35.125Z,97496.10
2019-02-09T02:36:04.500Z,97497.59
2019-02-09T02:38:33.750Z,97493.78
2019-02-09T02:41:04.224Z,97494.52
2019-02-09T02:43:33.498Z,97492.61
2019-02-09T02:46:02.762Z,97499.45
2019-02-09T02:48:32.983Z,97499.25
2019-02-09T02:51:02.251Z,97491.64
2019-02-09T02:53:31.524Z,97491.50
2019-02-09T02:56:00.781Z,97484.62
2019-02-09T02:58:30.075Z,97468.81
2019-02-09T03:00:59.323Z,97466.05
2019-02-09T03:03:28.608Z,97452.00
2019-02-09T03:05:57.903Z,97443.44
2019-02-09T03:08:27.145Z,97440.41
2019-02-09T03:10:56.427Z,97435.25
2019-02-09T03:13:25.696Z,97447.77
2019-02-09T03:15:54.982Z,97457.30
2019-02-09T03:18:24.243Z,97456.27
2019-02-09T03:20:53.500Z,97455.23
2019-02-09T03:23:22.773Z,97461.83
2019-02-09T03:25:52.024Z,97463.91
2019-02-09T03:28:21.344Z,97462.45
2019-02-09T03:30:50.641Z,97473.39
2019-02-09T03:33:19.879Z,97466.12
2019-02-09T03:35:49.128Z,97454.30
2019-02-09T03:38:18.392Z,97456.13
2019-02-09T03:40:47.933Z,97460.66
2019-02-09T03:43:18.298Z,97466.77
2019-02-09T03:45:47.646Z,97472.48
2019-02-09T03:48:16.895Z,97467.88
2019-02-09T03:50:46.278Z,97465.02
2019-02-09T03:53:15.527Z,97473.20
2019-02-09T03:55:44.768Z,97473.41
2019-02-09T03:58:14.036Z,97476.30
2019-02-09T04:00:43.480Z,97474.08
2019-02-09T04:03:12.828Z,97475.19
2019-02-09T04:05:42.082Z,97482.25
2019-02-09T04:08:11.652Z,97478.91
2019-02-09T04:10:40.926Z,97486.29
2019-02-09T04:13:10.170Z,97485.36
2019-02-09T04:15:39.438Z,97490.59
2019-02-09T04:18:08.683Z,97492.25
2019-02-09T04:20:37.927Z,97477.64
2019-02-09T04:23:07.194Z,97477.89
2019-02-09T04:25:36.440Z,97483.92
2019-02-09T04:28:05.802Z,97482.00
2019-02-09T04:30:35.063Z,97479.24
2019-02-09T04:33:04.345Z,97476.28
2019-02-09T04:35:33.662Z,97481.52
2019-02-09T04:38:02.937Z,97480.42
2019-02-09T04:40:33.040Z,97489.88
2019-02-09T04:43:02.282Z,97502.97
2019-02-09T04:45:34.294Z,97506.38
2019-02-09T04:48:03.550Z,97510.44
2019-02-09T04:50:32.818Z,97517.27
2019-02-09T04:53:02.084Z,97529.90
2019-02-09T04:55:31.356Z,97531.08
2019-02-09T04:58:00.602Z,97529.33
2019-02-09T05:00:31.124Z,97532.97
2019-02-09T05:03:00.368Z,97545.04
2019-02-09T05:05:30.318Z,97552.42
2019-02-09T05:07:59.568Z,97556.94
2019-02-09T05:10:28.805Z,97564.09
2019-02-09T05:12:58.083Z,97561.97
2019-02-09T05:15:27.338Z,97572.75
2019-02-09T05:17:56.611Z,97573.87
2019-02-09T05:20:26.173Z,97542.10
2019-02-09T05:22:55.586Z,97516.84
2019-02-09T05:25:24.977Z,97526.29
2019-02-09T05:27:54.223Z,97514.75
2019-02-09T05:30:28.025Z,97521.34
2019-02-09T05:33:00.361Z,97527.17
2019-02-09T05:35:29.171Z,97508.81
2019-02-09T05:37:58.416Z,97503.34
2019-02-09T05:40:27.984Z,97494.68
2019-02-09T05:42:57.255Z,97513.90
2019-02-09T05:45:27.821Z,97513.43
2019-02-09T05:47:57.116Z,97510.25
2019-02-09T05:50:26.335Z,97509.84
2019-02-09T05:52:55.800Z,97509.93
2019-02-09T05:55:25.077Z,97519.14
2019-02-09T05:57:54.331Z,97518.52
2019-02-09T06:00:31.949Z,97517.17
2019-02-09T06:03:01.185Z,97526.15
2019-02-09T06:05:30.470Z,97522.80
2019-02-09T06:07:59.758Z,97533.44
2019-02-09T06:10:29.012Z,97541.23
2019-02-09T06:12:58.278Z,97544.02
2019-02-09T06:15:28.247Z,97547.10
2019-02-09T06:17:57.524Z,97541.38
2019-02-09T06:20:27.296Z,97559.03
2019-02-09T06:22:56.949Z,97561.09
2019-02-09T06:25:26.211Z,97569.16
2019-02-09T06:27:55.864Z,97574.01
2019-02-09T06:30:27.118Z,97582.59
2019-02-09T06:32:56.658Z,97582.34
2019-02-09T06:35:26.371Z,97578.88
2019-02-09T06:37:55.816Z,97578.94
2019-02-09T06:40:25.655Z,97567.72
2019-02-09T06:42:54.931Z,97569.16
2019-02-09T06:45:24.733Z,97563.44
2019-02-09T06:47:54.011Z,97574.69
2019-02-09T06:50:26.116Z,97569.48
2019-02-09T06:52:55.360Z,97574.98
2019-02-09T06:55:24.640Z,97576.64
2019-02-09T06:57:53.890Z,97578.02
2019-02-09T07:00:23.407Z,97597.10
2019-02-09T07:02:54.459Z,97585.02
2019-02-09T07:05:23.720Z,97583.10
2019-02-09T07:07:52.982Z,97595.11
2019-02-09T07:10:23.513Z,97588.44
2019-02-09T07:12:52.957Z,97604.81
2019-02-09T07:15:24.906Z,97601.97
2019-02-09T07:17:54.201Z,97606.27
2019-02-09T07:20:23.950Z,97627.53
2019-02-09T07:22:53.227Z,97622.36
2019-02-09T07:25:22.970Z,97631.74
2019-02-09T07:27:52.328Z,97629.09
2019-02-09T07:30:28.753Z,97635.63
2019-02-09T07:32:58.826Z,97630.95
2019-02-09T07:35:28.150Z,97636.59
2019-02-09T07:37:57.714Z,97635.11
2019-02-09T07:40:27.696Z,97639.27
2019-02-09T07:42:56.993Z,97638.18
2019-02-09T07:45:27.298Z,97642.06
2019-02-09T07:47:56.678Z,97645.40
2019-02-09T07:50:26.480Z,97657.44
2019-02-09T07:52:55.764Z,97655.73
2019-02-09T07:55:25.638Z,97659.81
2019-02-09T07:57:54.914Z,97667.44
2019-02-09T08:00:28.898Z,97659.66
2019-02-09T08:03:03.755Z,97663.68
2019-02-09T08:05:33.403Z,97663.69
2019-02-09T08:08:02.690Z,97658.36
2019-02-09T08:10:33.101Z,97660.88
2019-02-09T08:13:02.750Z,97650.76
2019-02-09T08:15:32.724Z,97649.73
2019-02-09T08:18:02.333Z,97650.98
2019-02-09T08:20:31.812Z,97655.84
2019-02-09T08:23:02.226Z,97664.39
2019-02-09T08:25:33.312Z,97652.53
2019-02-09T08:28:04.653Z,97664.62
2019-02-09T08:30:40.316Z,97668.89
2019-02-09T08:33:09.964Z,97673.03
2019-02-09T08:35:40.439Z,97679.05
2019-02-09T08:38:11.391Z,97683.43
2019-02-09T08:40:40.907Z,97683.15
2019-02-09T08:43:10.161Z,97687.88
2019-02-09T08:45:39.436Z,97680.97
2019-02-09T08:48:08.946Z,97687.38
2019-02-09T08:50:53.823Z,97693.31
2019-02-09T08:53:23.067Z,97692.42
2019-02-09T08:55:52.358Z,97698.47
2019-02-09T08:58:21.609Z,97693.86
2019-02-09T09:00:50.914Z,97696.11
2019-02-09T09:03:20.217Z,97700.02
2019-02-09T09:05:53.336Z,97700.02
2019-02-09T09:08:24.394Z,97707.23
2019-02-09T09:10:53.690Z,97721.64
2019-02-09T09:13:22.985Z,97717.98
2019-02-09T09:15:54.425Z,97726.95
2019-02-09T09:18:23.670Z,97731.22
2019-02-09T09:20:55.469Z,97723.03
2019-02-09T09:23:24.774Z,97729.05
2019-02-09T09:25:54.050Z,97734.48
2019-02-09T09:28:23.333Z,97744.41
2019-02-09T09:30:52.587Z,97742.30
2019-02-09T09:33:21.875Z,97748.94
2019-02-09T09:35:51.275Z,97748.44
2019-02-09T09:38:20.868Z,97747.77
2019-02-09T09:40:50.145Z,97745.80
2019-02-09T09:43:20.521Z,97750.39
2019-02-09T09:45:50.203Z,97751.92
2019-02-09T09:48:20.329Z,97747.45
2019-02-09T09:50:49.589Z,97741.92
2019-02-09T09:53:18.886Z,97748.36
2019-02-09T09:55:48.174Z,97741.29
2019-02-09T09:58:17.964Z,97752.45
2019-02-09T10:00:47.350Z,97753.11
2019-02-09T10:03:16.678Z,97748.89
2019-02-09T10:05:45.944Z,97751.56
2019-02-09T10:08:15.256Z,97752.02
2019-02-09T10:10:44.616Z,97746.38
2019-02-09T10:13:13.939Z,97750.39
2019-02-09T10:15:43.204Z,97748.84
2019-02-09T10:18:12.560Z,97748.15
2019-02-09T10:20:41.868Z,97738.50
2019-02-09T10:23:11.164Z,97753.24
2019-02-09T10:25:40.407Z,97740.15
2019-02-09T10:28:09.802Z,97748.08
2019-02-09T10:30:39.271Z,97738.72
2019-02-09T10:33:08.549Z,97758.88
2019-02-09T10:35:37.821Z,97755.64
2019-02-09T10:38:07.121Z,97749.83
2019-02-09T10:40:36.385Z,97760.66
2019-02-09T10:43:07.711Z,97765.58
2019-02-09T10:45:37.111Z,97751.75
2019-02-09T10:48:08.833Z,97759.69
2019-02-09T10:50:44.019Z,97745.64
2019-02-09T10:53:13.378Z,97749.30
2019-02-09T10:55:42.638Z,97759.29
2019-02-09T10:58:11.963Z,97747.05
2019-02-09T11:00:47.517Z,97749.11
2019-02-09T11:03:17.982Z,97737.20
2019-02-09T11:05:47.207Z,97753.59
2019-02-09T11:08:16.851Z,97751.70
2019-02-09T11:10:46.481Z,97770.34
2019-02-09T11:13:15.742Z,97762.14
2019-02-09T11:15:45.199Z,97762.59
2019-02-09T11:18:14.475Z,97734.48
2019-02-09T11:20:43.734Z,97767.75
2019-02-09T11:23:13.087Z,97758.41
2019-02-09T11:26:03.002Z,97766.67
2019-02-09T11:28:32.903Z,97769.97
2019-02-09T11:31:03.821Z,97772.94
2019-02-09T11:33:33.539Z,97776.55
2019-02-09T11:36:03.166Z,97772.74
2019-02-09T11:38:32.578Z,97768.44
2019-02-09T11:41:18.248Z,97771.61
2019-02-09T11:43:57.913Z,97770.73
2019-02-09T11:46:27.338Z,97777.34
2019-02-09T11:48:56.595Z,97777.64
2019-02-09T11:51:25.868Z,97753.70
2019-02-09T11:53:55.273Z,97741.94
2019-02-09T11:56:27.224Z,97768.79
2019-02-09T11:58:57.707Z,97772.72
2019-02-09T12:01:28.077Z,97765.41
2019-02-09T12:03:58.654Z,97758.21
2019-02-09T12:06:28.045Z,97760.17
2019-02-09T12:08:57.450Z,97748.53
2019-02-09T12:11:26.802Z,97749.98
2019-02-09T12:13:56.276Z,97761.27
2019-02-09T12:16:25.690Z,97760.08
2019-02-09T12:18:55.191Z,97763.66
2019-02-09T12:21:26.370Z,97770.24
2019-02-09T12:23:57.168Z,97765.67
2019-02-09T12:26:27.628Z,97767.05
2019-02-09T12:28:57.100Z,97764.08
2019-02-09T12:31:26.486Z,97767.34
2019-02-09T12:33:57.159Z,97765.55
2019-02-09T12:36:26.569Z,97743.87
2019-02-09T12:38:55.971Z,97756.29
2019-02-09T12:41:26.378Z,97753.13
2019-02-09T12:43:56.132Z,97755.98
2019-02-09T12:46:28.421Z,97747.52
2019-02-09T12:48:58.268Z,97748.03
2019-02-09T12:51:27.762Z,97752.14
2019-02-09T12:54:00.730Z,97755.68
2019-02-09T12:56:30.233Z,97759.44
2019-02-09T12:59:00.077Z,97766.66
2019-02-09T13:01:33.143Z,97766.15
2019-02-09T13:04:02.583Z,97768.19
2019-02-09T13:06:32.074Z,97769.37
2019-02-09T13:09:03.750Z,97770.70
2019-02-09T13:11:33.178Z,97771.02
2019-02-09T13:14:03.858Z,97769.47
2019-02-09T13:16:36.302Z,97764.36
2019-02-09T13:19:06.742Z,97765.59
2019-02-09T13:21:36.388Z,97767.10
2019-02-09T13:24:08.150Z,97769.31
2019-02-09T13:26:39.255Z,97764.23
2019-02-09T13:29:10.441Z,97756.88
2019-02-09T13:31:42.968Z,97764.95
2019-02-09T13:34:13.412Z,97769.80
2019-02-09T13:36:44.814Z,97766.06
2019-02-09T13:39:17.222Z,97759.29
2019-02-09T13:41:46.618Z,97765.75
2019-02-09T13:44:17.163Z,97759.55
2019-02-09T13:46:46.727Z,97762.29
2019-02-09T13:49:17.169Z,97749.91
2019-02-09T13:51:48.415Z,97743.34
2019-02-09T13:54:18.896Z,97759.38
2019-02-09T13:56:50.068Z,97749.19
2019-02-09T13:59:20.961Z,97747.01
2019-02-09T14:01:51.548Z,97742.47
2019-02-09T14:04:22.897Z,97731.86
2019-02-09T14:06:52.403Z,97737.15
2019-02-09T14:09:21.747Z,97739.75
2019-02-09T14:11:53.294Z,97728.35
2019-02-09T14:14:22.701Z,97731.88
2019-02-09T14:16:55.182Z,97719.99
2019-02-09T14:19:27.027Z,97725.80
2019-02-09T14:21:57.875Z,97723.08
2019-02-09T14:24:29.178Z,97722.72
2019-02-09T14:26:58.426Z,97728.74
2019-02-09T14:29:27.741Z,97746.05
2019-02-09T14:31:57.347Z,97741.46
2019-02-09T14:34:26.762Z,97746.48
2019-02-09T14:36:56.111Z,97757.17
2019-02-09T14:39:25.406Z,97758.84
2019-02-09T14:41:54.631Z,97754.76
2019-02-09T14:44:23.900Z,97764.91
2019-02-09T14:46:53.143Z,97758.13
2019-02-09T14:49:22.417Z,97765.16
2019-02-09T14:51:51.668Z,97763.80
2019-02-09T14:54:20.921Z,97762.61
2019-02-09T14:56:50.216Z,97763.09
2019-02-09T14:59:19.484Z,97769.13
2019-02-09T15:01:52.065Z,97757.78
2019-02-09T15:04:21.660Z,97773.95
2019-02-09T15:06:50.917Z,97767.36
2019-02-09T15:09:22.007Z,97777.54
2019-02-09T15:11:51.255Z,97792.44
2019-02-09T15:14:20.547Z,97787.15
2019-02-09T15:16:52.699Z,97788.63
2019-02-09T15:19:25.471Z,97800.73
2019-02-09T15:21:54.739Z,97785.04
2019-02-09T15:24:23.982Z,97785.95
2019-02-09T15:26:53.249Z,97786.91
2019-02-09T15:29:22.543Z,97786.87
2019-02-09T15:31:51.968Z,97790.56
2019-02-09T15:34:21.222Z,97782.53
2019-02-09T15:36:51.039Z,97784.61
2019-02-09T15:39:20.327Z,97791.37
2019-02-09T15:41:49.575Z,97799.23
2019-02-09T15:44:18.882Z,97794.69
2019-02-09T15:46:48.166Z,97793.77
2019-02-09T15:49:17.413Z,97803.78
2019-02-09T15:51:46.708Z,97799.06
2019-02-09T15:54:15.954Z,97798.17
2019-02-09T15:56:45.470Z,97798.63
2019-02-09T15:59:15.681Z,97801.37
2019-02-09T16:01:46.086Z,97799.09
2019-02-09T16:04:17.837Z,97803.00
2019-02-09T16:06:48.198Z,97809.12
2019-02-09T16:09:19.438Z,97806.30
2019-02-09T16:11:48.821Z,97811.84
2019-02-09T16:14:19.319Z,97810.98
2019-02-09T16:16:49.639Z,97821.39
2019-02-09T16:19:18.900Z,97819.72
2019-02-09T16:21:48.410Z,97817.98
2019-02-09T16:24:19.365Z,97822.06
2019-02-09T16:26:48.680Z,97824.78
2019-02-09T16:29:17.938Z,97813.03
2019-02-09T16:31:47.399Z,97821.84
2019-02-09T16:34:16.704Z,97822.56
2019-02-09T16:36:45.942Z,97817.52
2019-02-09T16:39:15.190Z,97818.77
2019-02-09T16:41:44.634Z,97820.02
2019-02-09T16:44:13.900Z,97815.09
2019-02-09T16:46:43.339Z,97825.95
2019-02-09T16:49:12.597Z,97824.89
2019-02-09T16:51:41.848Z,97832.95
2019-02-09T16:54:12.283Z,97830.23
2019-02-09T16:56:41.533Z,97830.95
2019-02-09T16:59:10.897Z,97838.63
2019-02-09T17:01:40.176Z,97836.39
2019-02-09T17:04:12.530Z,97840.93
2019-02-09T17:06:44.120Z,97839.72
2019-02-09T17:09:14.256Z,97845.81
2019-02-09T17:11:44.758Z,97845.25
2019-02-09T17:14:15.995Z,97846.56
2019-02-09T17:16:48.458Z,97848.42
2019-02-09T17:19:18.267Z,97852.73
2019-02-09T17:21:50.326Z,97858.20
2019-02-09T17:24:20.309Z,97859.50
2019-02-09T17:26:50.014Z,97863.64
2019-02-09T17:29:21.100Z,97861.16
2019-02-09T17:31:53.621Z,97859.78
2019-02-09T17:34:22.858Z,97874.31
2019-02-09T17:36:53.397Z,97879.29
2019-02-09T17:39:22.660Z,97891.09
2019-02-09T17:41:52.042Z,97903.09
2019-02-09T17:44:21.310Z,97910.59
2019-02-09T17:46:51.065Z,97911.27
2019-02-09T17:49:20.321Z,97921.26
2019-02-09T17:51:49.710Z,97921.92
2019-02-09T17:54:18.981Z,97919.98
2019-02-09T17:56:49.616Z,97921.42
2019-02-09T17:59:20.667Z,97921.86
2019-02-09T18:01:49.926Z,97924.38
2019-02-09T18:04:19.233Z,97923.33
2019-02-09T18:06:48.578Z,97931.39
2019-02-09T18:09:18.221Z,97930.48
2019-02-09T18:11:49.072Z,97931.16
2019-02-09T18:14:18.850Z,97925.49
2019-02-09T18:16:48.150Z,97933.41
2019-02-09T18:19:19.238Z,97928.16
2019-02-09T18:21:50.442Z,97941.99
2019-02-09T18:24:21.407Z,97930.50
2019-02-09T18:26:50.760Z,97930.63
2019-02-09T18:29:20.032Z,97933.55
2019-02-09T18:31:50.898Z,97936.00
2019-02-09T18:34:21.395Z,97942.80
2019-02-09T18:36:50.704Z,97942.98
2019-02-09T18:39:19.951Z,97939.53
2019-02-09T18:41:49.349Z,97934.79
2019-02-09T18:44:18.653Z,97933.91
2019-02-09T18:46:47.949Z,97930.06
2019-02-09T18:49:17.243Z,97922.51
2019-02-09T18:51:48.349Z,97914.66
2019-02-09T18:54:17.652Z,97916.67
2019-02-09T18:56:46.932Z,97914.69
2019-02-09T18:59:16.266Z,97918.10
2019-02-09T19:01:47.948Z,97917.24
2019-02-09T19:04:19.383Z,97917.04
2019-02-09T19:06:50.504Z,97909.55
2019-02-09T19:09:22.581Z,97908.75
2019-02-09T19:11:53.784Z,97914.06
2019-02-09T19:14:24.674Z,97907.50
2019-02-09T19:16:55.316Z,97906.11
2019-02-09T19:19:26.420Z,97904.05
2019-02-09T19:21:57.445Z,97900.54
2019-02-09T19:24:28.290Z,97906.34
2019-02-09T19:27:00.671Z,97909.05
2019-02-09T19:29:30.788Z,97912.37
2019-02-09T19:32:01.752Z,97912.69
2019-02-09T19:34:31.367Z,97920.00
2019-02-09T19:37:02.087Z,97908.25
2019-02-09T19:39:33.573Z,97913.91
2019-02-09T19:42:08.496Z,97909.14
2019-02-09T19:44:41.910Z,97910.92
2019-02-09T19:47:14.886Z,97913.72
2019-02-09T19:49:47.178Z,97913.48
2019-02-09T19:52:18.908Z,97910.18
2019-02-09T19:54:51.573Z,97912.17
2019-02-09T19:57:23.737Z,97907.16
2019-02-09T19:59:53.557Z,97920.69
2019-02-09T20:02:23.133Z,97927.77
2019-02-09T20:04:53.163Z,97925.44
2019-02-09T20:07:27.808Z,97911.86
2019-02-09T20:09:58.209Z,97916.03
2019-02-09T20:12:29.066Z,97923.38
2019-02-09T20:15:00.041Z,97923.13
2019-02-09T20:17:29.535Z,97924.64
2019-02-09T20:19:59.363Z,97924.06
2019-02-09T20:22:29.527Z,97927.69
2019-02-09T20:24:59.129Z,97935.83
2019-02-09T20:27:29.342Z,97929.41
2019-02-09T20:29:58.787Z,97933.34
2019-02-09T20:32:28.396Z,97926.64
2019-02-09T20:34:57.706Z,97931.38
2019-02-09T20:37:26.972Z,97928.75
2019-02-09T20:39:57.946Z,97926.60
2019-02-09T20:42:28.869Z,97931.34
2019-02-09T20:44:58.280Z,97920.84
2019-02-09T20:47:28.476Z,97926.55
2019-02-09T20:49:58.215Z,97925.20
2019-02-09T20:52:27.491Z,97918.53
2019-02-09T20:54:56.828Z,97911.66
2019-02-09T20:57:26.528Z,97913.83
2019-02-09T20:59:55.824Z,97907.67
2019-02-09T21:02:25.174Z,97902.48
2019-02-09T21:04:54.468Z,97902.25
2019-02-09T21:07:24.657Z,97899.81
2019-02-09T21:09:54.106Z,97894.45
2019-02-09T21:12:23.893Z,97898.67
2019-02-09T21:14:53.175Z,97900.03
2019-02-09T21:17:22.439Z,97904.85
2019-02-09T21:19:51.734Z,97904.17
2019-02-09T21:22:22.125Z,97906.91
2019-02-09T21:24:51.404Z,97910.75
2019-02-09T21:27:20.748Z,97912.77
2019-02-09T21:29:50.052Z,97918.55
2019-02-09T21:32:19.626Z,97920.86
2019-02-09T21:34:48.960Z,97922.36
2019-02-09T21:37:18.234Z,97925.44
2019-02-09T21:39:47.543Z,97924.28
2019-02-09T21:42:16.837Z,97920.95
2019-02-09T21:44:46.499Z,97920.33
2019-02-09T21:47:16.347Z,97914.80
2019-02-09T21:49:45.607Z,97926.17
2019-02-09T21:52:15.358Z,97924.78
2019-02-09T21:54:45.277Z,97915.83
2019-02-09T21:57:14.521Z,97909.39
2019-02-09T21:59:43.904Z,97912.92
2019-02-09T22:02:13.200Z,97922.65
2019-02-09T22:04:42.517Z,97918.17
2019-02-09T22:07:12.267Z,97924.55
2019-02-09T22:09:41.557Z,97921.59
2019-02-09T22:12:12.383Z,97919.89
2019-02-09T22:14:41.874Z,97917.66
2019-02-09T22:17:11.450Z,97915.66
2019-02-09T22:19:41.637Z,97908.64
2019-02-09T22:22:10.896Z,97918.06
2019-02-09T22:24:40.146Z,97920.22
2019-02-09T22:27:09.465Z,97917.91
2019-02-09T22:29:38.771Z,97918.55
2019-02-09T22:32:08.003Z,97922.33
2019-02-09T22:34:37.358Z,97915.08
2019-02-09T22:37:06.609Z,97909.34
2019-02-09T22:39:36.729Z,97890.37
2019-02-09T22:42:06.014Z,97893.53
2019-02-09T22:44:36.132Z,97886.80
2019-02-09T22:47:07.136Z,97894.92
2019-02-09T22:49:36.702Z,97895.76
2019-02-09T22:52:06.721Z,97893.56
2019-02-09T22:54:35.978Z,97898.47
2019-02-09T22:57:05.448Z,97892.05
2019-02-09T22:59:34.730Z,97891.05
2019-02-09T23:02:06.249Z,97892.45
2019-02-09T23:05:06.886Z,97893.25
2019-02-09T23:07:36.562Z,97897.91
2019-02-09T23:10:13.845Z,97896.00
2019-02-09T23:12:48.392Z,97897.87
2019-02-09T23:15:14.203Z,97891.97
2019-02-09T23:17:43.782Z,97887.52
2019-02-09T23:20:13.199Z,97881.30
2019-02-09T23:22:42.757Z,97880.98
2019-02-09T23:25:12.026Z,97884.72
2019-02-09T23:27:41.298Z,97879.98
2019-02-09T23:30:13.034Z,97879.18
2019-02-09T23:32:42.307Z,97882.66
2019-02-09T23:35:11.907Z,97880.19
2019-02-09T23:37:41.586Z,97875.64
2019-02-09T23:40:10.898Z,97883.16
2019-02-09T23:42:40.298Z,97880.66
2019-02-09T23:45:09.799Z,97876.52
2019-02-09T23:47:39.394Z,97878.94
2019-02-09T23:50:09.075Z,97870.97
2019-02-09T23:52:38.376Z,97868.83
2019-02-09T23:55:08.126Z,97859.34
2019-02-09T23:57:37.428Z,97861.63
